sensor_id;sensor_type;location;lat;lon;timestamp;pressure;altitude;pressure_sealevel;temperature;humidity
33185;BME280;19550;42.872;25.494;2023-07-29T00:00:43;96254.22;;;14.00;100.00
33185;BME280;19550;42.872;25.494;2023-07-29T00:03:10;96253.00;;;13.76;100.00
33185;BME280;19550;42.872;25.494;2023-07-29T00:05:37;96249.06;;;13.77;100.00
33185;BME280;19550;42.872;25.494;2023-07-29T00:08:05;96249.22;;;13.81;100.00
33185;BME280;19550;42.872;25.494;2023-07-29T00:10:36;96246.41;;;13.69;100.00
33185;BME280;19550;42.872;25.494;2023-07-29T00:13:04;96236.88;;;13.70;100.00
33185;BME280;19550;42.872;25.494;2023-07-29T00:15:31;96245.59;;;13.68;100.00
33185;BME280;19550;42.872;25.494;2023-07-29T00:17:57;96241.41;;;13.62;100.00
33185;BME280;19550;42.872;25.494;2023-07-29T00:20:24;96232.00;;;13.67;100.00
33185;BME280;19550;42.872;25.494;2023-07-29T00:22:51;96237.47;;;13.75;100.00
33185;BME280;19550;42.872;25.494;2023-07-29T00:25:20;96236.06;;;13.69;100.00
33185;BME280;19550;42.872;25.494;2023-07-29T00:27:48;96237.81;;;13.74;100.00
33185;BME280;19550;42.872;25.494;2023-07-29T00:30:15;96231.19;;;13.66;100.00
33185;BME280;19550;42.872;25.494;2023-07-29T00:32:42;96227.34;;;13.71;100.00
33185;BME280;19550;42.872;25.494;2023-07-29T00:35:08;96217.00;;;13.59;100.00
33185;BME280;19550;42.872;25.494;2023-07-29T00:37:35;96219.53;;;13.52;100.00
33185;BME280;19550;42.872;25.494;2023-07-29T00:40:03;96225.25;;;13.56;100.00
33185;BME280;19550;42.872;25.494;2023-07-29T00:42:30;96218.84;;;13.55;100.00
33185;BME280;19550;42.872;25.494;2023-07-29T00:44:58;96213.38;;;13.46;100.00
33185;BME280;19550;42.872;25.494;2023-07-29T00:47:25;96206.97;;;13.34;100.00
33185;BME280;19550;42.872;25.494;2023-07-29T00:49:52;96210.34;;;13.39;100.00
33185;BME280;19550;42.872;25.494;2023-07-29T00:52:19;96210.56;;;13.34;100.00
33185;BME280;19550;42.872;25.494;2023-07-29T00:54:46;96211.56;;;13.30;100.00
33185;BME280;19550;42.872;25.494;2023-07-29T00:57:13;96208.78;;;13.30;100.00
33185;BME280;19550;42.872;25.494;2023-07-29T00:59:41;96197.88;;;13.25;100.00
33185;BME280;19550;42.872;25.494;2023-07-29T01:02:10;96212.69;;;13.17;100.00
33185;BME280;19550;42.872;25.494;2023-07-29T01:04:36;96217.91;;;12.97;100.00
33185;BME280;19550;42.872;25.494;2023-07-29T01:07:09;96211.34;;;13.02;100.00
33185;BME280;19550;42.872;25.494;2023-07-29T01:09:47;96207.03;;;13.04;100.00
33185;BME280;19550;42.872;25.494;2023-07-29T01:12:21;96214.31;;;13.18;100.00
33185;BME280;19550;42.872;25.494;2023-07-29T01:14:55;96215.75;;;13.03;100.00
33185;BME280;19550;42.872;25.494;2023-07-29T01:17:33;96214.56;;;12.83;100.00
33185;BME280;19550;42.872;25.494;2023-07-29T01:20:07;96203.13;;;12.85;100.00
33185;BME280;19550;42.872;25.494;2023-07-29T01:22:35;96215.53;;;12.87;100.00
33185;BME280;19550;42.872;25.494;2023-07-29T01:25:05;96215.06;;;12.85;100.00
33185;BME280;19550;42.872;25.494;2023-07-29T01:27:31;96207.97;;;12.76;100.00
33185;BME280;19550;42.872;25.494;2023-07-29T01:29:58;96207.25;;;12.79;100.00
33185;BME280;19550;42.872;25.494;2023-07-29T01:32:30;96212.16;;;12.82;100.00
33185;BME280;19550;42.872;25.494;2023-07-29T01:35:03;96207.19;;;12.87;100.00
33185;BME280;19550;42.872;25.494;2023-07-29T01:37:34;96213.91;;;12.86;100.00
33185;BME280;19550;42.872;25.494;2023-07-29T01:40:07;96213.44;;;12.84;100.00
33185;BME280;19550;42.872;25.494;2023-07-29T01:42:35;96217.84;;;12.85;100.00
33185;BME280;19550;42.872;25.494;2023-07-29T01:45:02;96213.09;;;12.86;100.00
33185;BME280;19550;42.872;25.494;2023-07-29T01:47:30;96227.06;;;12.77;100.00
33185;BME280;19550;42.872;25.494;2023-07-29T01:49:57;96226.34;;;12.68;100.00
33185;BME280;19550;42.872;25.494;2023-07-29T01:52:24;96229.56;;;12.70;100.00
33185;BME280;19550;42.872;25.494;2023-07-29T01:54:50;96231.06;;;12.67;100.00
33185;BME280;19550;42.872;25.494;2023-07-29T01:57:19;96229.13;;;12.68;100.00
33185;BME280;19550;42.872;25.494;2023-07-29T01:59:45;96230.09;;;12.63;100.00
33185;BME280;19550;42.872;25.494;2023-07-29T02:02:13;96231.91;;;12.68;100.00
33185;BME280;19550;42.872;25.494;2023-07-29T02:04:40;96229.38;;;12.75;100.00
33185;BME280;19550;42.872;25.494;2023-07-29T02:07:06;96230.25;;;12.67;100.00
33185;BME280;19550;42.872;25.494;2023-07-29T02:09:33;96231.75;;;12.64;100.00
33185;BME280;19550;42.872;25.494;2023-07-29T02:12:00;96239.81;;;12.57;100.00
33185;BME280;19550;42.872;25.494;2023-07-29T02:14:29;96237.22;;;12.52;100.00
33185;BME280;19550;42.872;25.494;2023-07-29T02:16:56;96234.25;;;12.57;100.00
33185;BME280;19550;42.872;25.494;2023-07-29T02:19:23;96237.50;;;12.59;100.00
33185;BME280;19550;42.872;25.494;2023-07-29T02:21:49;96245.22;;;12.54;100.00
33185;BME280;19550;42.872;25.494;2023-07-29T02:24:16;96254.53;;;12.58;100.00
33185;BME280;19550;42.872;25.494;2023-07-29T02:26:43;96243.69;;;12.65;100.00
33185;BME280;19550;42.872;25.494;2023-07-29T02:29:10;96246.63;;;12.68;100.00
33185;BME280;19550;42.872;25.494;2023-07-29T02:31:38;96245.31;;;12.66;100.00
33185;BME280;19550;42.872;25.494;2023-07-29T02:34:05;96243.13;;;12.71;100.00
33185;BME280;19550;42.872;25.494;2023-07-29T02:36:31;96246.19;;;12.58;100.00
33185;BME280;19550;42.872;25.494;2023-07-29T02:38:58;96245.84;;;12.59;100.00
33185;BME280;19550;42.872;25.494;2023-07-29T02:41:25;96246.59;;;12.48;100.00
33185;BME280;19550;42.872;25.494;2023-07-29T02:43:52;96246.72;;;12.51;100.00
33185;BME280;19550;42.872;25.494;2023-07-29T02:46:19;96246.44;;;12.44;100.00
33185;BME280;19550;42.872;25.494;2023-07-29T02:48:47;96249.06;;;12.41;100.00
33185;BME280;19550;42.872;25.494;2023-07-29T02:51:14;96251.69;;;12.37;100.00
33185;BME280;19550;42.872;25.494;2023-07-29T02:53:41;96258.06;;;12.38;100.00
33185;BME280;19550;42.872;25.494;2023-07-29T02:56:08;96248.63;;;12.30;100.00
33185;BME280;19550;42.872;25.494;2023-07-29T02:58:35;96247.16;;;12.32;100.00
33185;BME280;19550;42.872;25.494;2023-07-29T03:01:03;96250.03;;;12.45;100.00
33185;BME280;19550;42.872;25.494;2023-07-29T03:03:30;96256.84;;;12.56;100.00
33185;BME280;19550;42.872;25.494;2023-07-29T03:06:00;96255.88;;;12.52;100.00
33185;BME280;19550;42.872;25.494;2023-07-29T03:08:27;96254.41;;;12.54;100.00
33185;BME280;19550;42.872;25.494;2023-07-29T03:10:54;96254.94;;;12.48;100.00
33185;BME280;19550;42.872;25.494;2023-07-29T03:13:21;96253.09;;;12.52;100.00
33185;BME280;19550;42.872;25.494;2023-07-29T03:15:48;96258.38;;;12.45;100.00
33185;BME280;19550;42.872;25.494;2023-07-29T03:18:15;96260.28;;;12.53;100.00
33185;BME280;19550;42.872;25.494;2023-07-29T03:20:42;96254.72;;;12.53;100.00
33185;BME280;19550;42.872;25.494;2023-07-29T03:23:10;96251.75;;;12.58;100.00
33185;BME280;19550;42.872;25.494;2023-07-29T03:25:37;96249.97;;;12.53;100.00
33185;BME280;19550;42.872;25.494;2023-07-29T03:28:03;96253.28;;;12.47;100.00
33185;BME280;19550;42.872;25.494;2023-07-29T03:30:30;96250.50;;;12.47;100.00
33185;BME280;19550;42.872;25.494;2023-07-29T03:32:57;96251.94;;;12.53;100.00
33185;BME280;19550;42.872;25.494;2023-07-29T03:35:24;96255.00;;;12.60;100.00
33185;BME280;19550;42.872;25.494;2023-07-29T03:37:51;96256.63;;;12.61;100.00
33185;BME280;19550;42.872;25.494;2023-07-29T03:40:19;96254.97;;;12.68;100.00
33185;BME280;19550;42.872;25.494;2023-07-29T03:42:46;96257.53;;;12.73;100.00
33185;BME280;19550;42.872;25.494;2023-07-29T03:45:13;96256.84;;;12.77;100.00
33185;BME280;19550;42.872;25.494;2023-07-29T03:47:39;96261.00;;;12.91;100.00
33185;BME280;19550;42.872;25.494;2023-07-29T03:50:07;96258.81;;;12.97;100.00
33185;BME280;19550;42.872;25.494;2023-07-29T03:52:33;96260.16;;;13.11;100.00
33185;BME280;19550;42.872;25.494;2023-07-29T03:55:00;96259.00;;;13.21;100.00
33185;BME280;19550;42.872;25.494;2023-07-29T03:57:28;96263.22;;;13.39;100.00
33185;BME280;19550;42.872;25.494;2023-07-29T03:59:55;96261.22;;;13.61;100.00
33185;BME280;19550;42.872;25.494;2023-07-29T04:02:22;96271.00;;;13.67;100.00
33185;BME280;19550;42.872;25.494;2023-07-29T04:04:49;96259.31;;;13.85;100.00
33185;BME280;19550;42.872;25.494;2023-07-29T04:07:17;96267.94;;;14.05;100.00
33185;BME280;19550;42.872;25.494;2023-07-29T04:09:44;96276.53;;;14.12;100.00
33185;BME280;19550;42.872;25.494;2023-07-29T04:12:11;96271.31;;;14.10;100.00
33185;BME280;19550;42.872;25.494;2023-07-29T04:14:39;96268.56;;;14.22;100.00
33185;BME280;19550;42.872;25.494;2023-07-29T04:17:07;96260.28;;;14.26;100.00
33185;BME280;19550;42.872;25.494;2023-07-29T04:19:34;96270.41;;;14.30;100.00
33185;BME280;19550;42.872;25.494;2023-07-29T04:22:00;96276.13;;;14.46;100.00
33185;BME280;19550;42.872;25.494;2023-07-29T04:24:28;96269.06;;;14.49;100.00
33185;BME280;19550;42.872;25.494;2023-07-29T04:26:54;96267.28;;;14.56;100.00
33185;BME280;19550;42.872;25.494;2023-07-29T04:29:21;96266.59;;;14.71;100.00
33185;BME280;19550;42.872;25.494;2023-07-29T04:31:50;96262.63;;;14.73;100.00
33185;BME280;19550;42.872;25.494;2023-07-29T04:34:17;96265.41;;;14.85;100.00
33185;BME280;19550;42.872;25.494;2023-07-29T04:36:44;96271.06;;;15.00;100.00
33185;BME280;19550;42.872;25.494;2023-07-29T04:39:11;96269.88;;;15.14;100.00
33185;BME280;19550;42.872;25.494;2023-07-29T04:41:38;96266.34;;;15.29;100.00
33185;BME280;19550;42.872;25.494;2023-07-29T04:44:05;96275.13;;;15.43;100.00
33185;BME280;19550;42.872;25.494;2023-07-29T04:46:32;96274.06;;;15.60;99.50
33185;BME280;19550;42.872;25.494;2023-07-29T04:49:00;96269.75;;;15.78;98.30
33185;BME280;19550;42.872;25.494;2023-07-29T04:51:28;96260.28;;;15.82;98.84
33185;BME280;19550;42.872;25.494;2023-07-29T04:53:55;96270.34;;;15.99;98.35
33185;BME280;19550;42.872;25.494;2023-07-29T04:56:22;96269.91;;;16.13;97.71
33185;BME280;19550;42.872;25.494;2023-07-29T04:58:49;96269.56;;;16.30;97.01
33185;BME280;19550;42.872;25.494;2023-07-29T05:01:15;96265.22;;;16.48;95.51
33185;BME280;19550;42.872;25.494;2023-07-29T05:03:42;96275.06;;;16.58;94.82
33185;BME280;19550;42.872;25.494;2023-07-29T05:06:10;96269.38;;;16.70;93.78
33185;BME280;19550;42.872;25.494;2023-07-29T05:08:37;96273.50;;;16.92;92.83
33185;BME280;19550;42.872;25.494;2023-07-29T05:11:04;96273.88;;;17.09;92.08
33185;BME280;19550;42.872;25.494;2023-07-29T05:13:31;96266.25;;;17.26;91.38
33185;BME280;19550;42.872;25.494;2023-07-29T05:15:58;96280.66;;;17.43;90.21
33185;BME280;19550;42.872;25.494;2023-07-29T05:18:25;96276.25;;;17.62;90.31
33185;BME280;19550;42.872;25.494;2023-07-29T05:20:51;96281.47;;;17.82;89.00
33185;BME280;19550;42.872;25.494;2023-07-29T05:23:20;96283.56;;;18.08;88.55
33185;BME280;19550;42.872;25.494;2023-07-29T05:25:46;96288.72;;;18.25;87.09
33185;BME280;19550;42.872;25.494;2023-07-29T05:28:13;96287.69;;;18.34;86.37
33185;BME280;19550;42.872;25.494;2023-07-29T05:30:40;96302.34;;;18.46;86.58
33185;BME280;19550;42.872;25.494;2023-07-29T05:33:07;96297.50;;;18.66;86.40
33185;BME280;19550;42.872;25.494;2023-07-29T05:35:34;96300.34;;;18.92;86.08
33185;BME280;19550;42.872;25.494;2023-07-29T05:38:01;96296.22;;;19.13;84.40
33185;BME280;19550;42.872;25.494;2023-07-29T05:40:30;96302.56;;;19.36;83.73
33185;BME280;19550;42.872;25.494;2023-07-29T05:42:57;96297.56;;;19.49;82.89
33185;BME280;19550;42.872;25.494;2023-07-29T05:45:23;96313.09;;;19.69;82.34
33185;BME280;19550;42.872;25.494;2023-07-29T05:47:50;96314.06;;;19.80;81.07
33185;BME280;19550;42.872;25.494;2023-07-29T05:50:17;96316.25;;;19.94;80.77
33185;BME280;19550;42.872;25.494;2023-07-29T05:52:44;96314.75;;;20.03;79.91
33185;BME280;19550;42.872;25.494;2023-07-29T05:55:10;96316.19;;;20.23;78.92
33185;BME280;19550;42.872;25.494;2023-07-29T05:57:39;96314.81;;;20.44;78.82
33185;BME280;19550;42.872;25.494;2023-07-29T06:00:06;96307.72;;;20.57;76.41
33185;BME280;19550;42.872;25.494;2023-07-29T06:02:33;96307.16;;;20.85;77.14
33185;BME280;19550;42.872;25.494;2023-07-29T06:05:00;96306.16;;;21.11;75.54
33185;BME280;19550;42.872;25.494;2023-07-29T06:07:28;96306.78;;;21.37;75.20
33185;BME280;19550;42.872;25.494;2023-07-29T06:09:56;96298.84;;;21.57;73.92
33185;BME280;19550;42.872;25.494;2023-07-29T06:12:23;96295.28;;;21.74;72.38
33185;BME280;19550;42.872;25.494;2023-07-29T06:14:52;96295.34;;;21.89;71.28
33185;BME280;19550;42.872;25.494;2023-07-29T06:17:18;96291.06;;;22.12;70.93
33185;BME280;19550;42.872;25.494;2023-07-29T06:19:45;96291.09;;;22.27;69.86
33185;BME280;19550;42.872;25.494;2023-07-29T06:22:12;96293.53;;;22.42;69.61
33185;BME280;19550;42.872;25.494;2023-07-29T06:24:39;96298.44;;;22.59;67.94
33185;BME280;19550;42.872;25.494;2023-07-29T06:27:06;96293.63;;;22.78;67.23
33185;BME280;19550;42.872;25.494;2023-07-29T06:29:33;96292.00;;;22.94;67.13
33185;BME280;19550;42.872;25.494;2023-07-29T06:32:01;96293.63;;;23.10;66.13
33185;BME280;19550;42.872;25.494;2023-07-29T06:34:28;96293.59;;;23.31;66.22
33185;BME280;19550;42.872;25.494;2023-07-29T06:36:54;96288.75;;;23.53;64.63
33185;BME280;19550;42.872;25.494;2023-07-29T06:39:21;96285.50;;;23.65;64.01
33185;BME280;19550;42.872;25.494;2023-07-29T06:41:48;96274.09;;;23.83;62.10
33185;BME280;19550;42.872;25.494;2023-07-29T06:44:15;96276.84;;;24.04;61.43
33185;BME280;19550;42.872;25.494;2023-07-29T06:46:42;96278.41;;;24.23;60.36
33185;BME280;19550;42.872;25.494;2023-07-29T06:49:10;96275.81;;;24.49;57.45
33185;BME280;19550;42.872;25.494;2023-07-29T06:51:37;96265.56;;;24.70;52.80
33185;BME280;19550;42.872;25.494;2023-07-29T06:54:03;96270.69;;;24.92;50.85
33185;BME280;19550;42.872;25.494;2023-07-29T06:56:30;96283.50;;;25.08;50.29
33185;BME280;19550;42.872;25.494;2023-07-29T06:58:57;96276.38;;;25.33;49.80
33185;BME280;19550;42.872;25.494;2023-07-29T07:01:24;96269.25;;;25.56;46.94
33185;BME280;19550;42.872;25.494;2023-07-29T07:03:51;96271.03;;;25.80;45.35
33185;BME280;19550;42.872;25.494;2023-07-29T07:06:21;96274.19;;;25.89;45.40
33185;BME280;19550;42.872;25.494;2023-07-29T07:08:50;96263.22;;;25.91;42.75
33185;BME280;19550;42.872;25.494;2023-07-29T07:11:17;96272.81;;;26.01;42.74
33185;BME280;19550;42.872;25.494;2023-07-29T07:13:45;96269.78;;;26.19;43.60
33185;BME280;19550;42.872;25.494;2023-07-29T07:16:12;96267.03;;;26.42;43.60
33185;BME280;19550;42.872;25.494;2023-07-29T07:18:39;96270.09;;;26.55;43.72
33185;BME280;19550;42.872;25.494;2023-07-29T07:21:06;96266.03;;;26.56;42.50
33185;BME280;19550;42.872;25.494;2023-07-29T07:23:34;96265.63;;;26.54;42.28
33185;BME280;19550;42.872;25.494;2023-07-29T07:26:01;96269.88;;;26.69;43.62
33185;BME280;19550;42.872;25.494;2023-07-29T07:28:28;96271.13;;;26.95;42.81
33185;BME280;19550;42.872;25.494;2023-07-29T07:30:55;96271.50;;;27.20;42.35
33185;BME280;19550;42.872;25.494;2023-07-29T07:33:22;96262.44;;;27.28;43.24
33185;BME280;19550;42.872;25.494;2023-07-29T07:35:49;96269.34;;;27.51;41.56
33185;BME280;19550;42.872;25.494;2023-07-29T07:38:15;96263.28;;;27.72;40.59
33185;BME280;19550;42.872;25.494;2023-07-29T07:40:52;96266.50;;;27.74;39.79
33185;BME280;19550;42.872;25.494;2023-07-29T07:43:19;96255.72;;;27.85;39.73
33185;BME280;19550;42.872;25.494;2023-07-29T07:45:46;96262.84;;;27.93;40.70
33185;BME280;19550;42.872;25.494;2023-07-29T07:48:13;96262.38;;;27.98;40.78
33185;BME280;19550;42.872;25.494;2023-07-29T07:50:39;96262.84;;;28.13;41.46
33185;BME280;19550;42.872;25.494;2023-07-29T07:53:06;96267.03;;;28.28;40.58
33185;BME280;19550;42.872;25.494;2023-07-29T07:55:33;96264.25;;;28.44;40.68
33185;BME280;19550;42.872;25.494;2023-07-29T07:58:01;96260.88;;;28.50;41.18
33185;BME280;19550;42.872;25.494;2023-07-29T08:00:28;96268.25;;;28.47;42.88
33185;BME280;19550;42.872;25.494;2023-07-29T08:02:55;96262.06;;;28.32;40.25
33185;BME280;19550;42.872;25.494;2023-07-29T08:05:22;96262.88;;;28.33;41.23
33185;BME280;19550;42.872;25.494;2023-07-29T08:07:48;96260.59;;;28.44;40.58
33185;BME280;19550;42.872;25.494;2023-07-29T08:10:15;96267.56;;;28.59;39.73
33185;BME280;19550;42.872;25.494;2023-07-29T08:12:42;96262.50;;;28.51;39.72
33185;BME280;19550;42.872;25.494;2023-07-29T08:15:10;96254.69;;;28.71;40.03
33185;BME280;19550;42.872;25.494;2023-07-29T08:17:37;96261.84;;;28.43;38.18
33185;BME280;19550;42.872;25.494;2023-07-29T08:20:05;96259.31;;;28.65;38.63
33185;BME280;19550;42.872;25.494;2023-07-29T08:22:32;96253.41;;;29.08;38.23
33185;BME280;19550;42.872;25.494;2023-07-29T08:24:58;96261.59;;;29.22;38.00
33185;BME280;19550;42.872;25.494;2023-07-29T08:27:25;96257.31;;;29.30;38.29
33185;BME280;19550;42.872;25.494;2023-07-29T08:29:53;96254.47;;;29.46;37.51
33185;BME280;19550;42.872;25.494;2023-07-29T08:32:22;96249.91;;;29.49;37.75
33185;BME280;19550;42.872;25.494;2023-07-29T08:34:48;96249.91;;;29.65;38.17
33185;BME280;19550;42.872;25.494;2023-07-29T08:37:15;96250.22;;;29.67;38.27
33185;BME280;19550;42.872;25.494;2023-07-29T08:39:42;96247.34;;;29.83;37.16
33185;BME280;19550;42.872;25.494;2023-07-29T08:42:11;96242.97;;;29.95;36.72
33185;BME280;19550;42.872;25.494;2023-07-29T08:44:41;96247.09;;;29.78;36.54
33185;BME280;19550;42.872;25.494;2023-07-29T08:47:08;96243.66;;;29.99;37.05
33185;BME280;19550;42.872;25.494;2023-07-29T08:49:37;96240.88;;;30.24;36.69
33185;BME280;19550;42.872;25.494;2023-07-29T08:52:04;96243.63;;;30.28;37.19
33185;BME280;19550;42.872;25.494;2023-07-29T08:54:31;96238.28;;;30.42;36.67
33185;BME280;19550;42.872;25.494;2023-07-29T08:56:58;96235.41;;;30.42;36.38
33185;BME280;19550;42.872;25.494;2023-07-29T08:59:26;96243.44;;;30.48;35.25
33185;BME280;19550;42.872;25.494;2023-07-29T09:01:54;96243.19;;;30.29;35.96
33185;BME280;19550;42.872;25.494;2023-07-29T09:04:22;96236.09;;;30.47;35.87
33185;BME280;19550;42.872;25.494;2023-07-29T09:06:53;96224.19;;;30.35;35.94
33185;BME280;19550;42.872;25.494;2023-07-29T09:09:21;96238.16;;;30.46;35.95
33185;BME280;19550;42.872;25.494;2023-07-29T09:11:47;96235.03;;;30.82;34.65
33185;BME280;19550;42.872;25.494;2023-07-29T09:14:14;96228.03;;;30.96;34.43
33185;BME280;19550;42.872;25.494;2023-07-29T09:16:41;96229.66;;;30.84;34.02
33185;BME280;19550;42.872;25.494;2023-07-29T09:19:08;96226.53;;;30.66;35.05
33185;BME280;19550;42.872;25.494;2023-07-29T09:21:38;96232.03;;;30.86;35.15
33185;BME280;19550;42.872;25.494;2023-07-29T09:24:07;96235.16;;;31.16;34.75
33185;BME280;19550;42.872;25.494;2023-07-29T09:26:35;96231.09;;;31.27;34.81
33185;BME280;19550;42.872;25.494;2023-07-29T09:29:02;96232.09;;;31.45;34.76
33185;BME280;19550;42.872;25.494;2023-07-29T09:31:29;96226.44;;;31.67;34.60
33185;BME280;19550;42.872;25.494;2023-07-29T09:33:57;96230.59;;;31.88;34.76
33185;BME280;19550;42.872;25.494;2023-07-29T09:36:25;96223.81;;;31.60;35.44
33185;BME280;19550;42.872;25.494;2023-07-29T09:38:55;96225.22;;;31.43;34.57
33185;BME280;19550;42.872;25.494;2023-07-29T09:41:25;96228.94;;;31.31;33.75
33185;BME280;19550;42.872;25.494;2023-07-29T09:43:57;96226.72;;;31.35;34.75
33185;BME280;19550;42.872;25.494;2023-07-29T09:46:25;96222.69;;;31.57;33.89
33185;BME280;19550;42.872;25.494;2023-07-29T09:48:53;96221.25;;;31.75;33.63
33185;BME280;19550;42.872;25.494;2023-07-29T09:51:21;96222.59;;;32.05;33.60
33185;BME280;19550;42.872;25.494;2023-07-29T09:53:50;96222.44;;;32.21;33.13
33185;BME280;19550;42.872;25.494;2023-07-29T09:56:17;96217.97;;;32.20;33.40
33185;BME280;19550;42.872;25.494;2023-07-29T09:58:46;96229.31;;;32.23;33.18
33185;BME280;19550;42.872;25.494;2023-07-29T10:01:14;96221.81;;;32.48;33.04
33185;BME280;19550;42.872;25.494;2023-07-29T10:03:42;96224.69;;;32.48;34.00
33185;BME280;19550;42.872;25.494;2023-07-29T10:06:09;96230.97;;;32.64;32.90
33185;BME280;19550;42.872;25.494;2023-07-29T10:08:37;96219.00;;;32.57;32.71
33185;BME280;19550;42.872;25.494;2023-07-29T10:11:06;96217.03;;;32.76;33.14
33185;BME280;19550;42.872;25.494;2023-07-29T10:13:34;96219.34;;;32.99;32.42
33185;BME280;19550;42.872;25.494;2023-07-29T10:16:03;96212.00;;;32.98;33.51
33185;BME280;19550;42.872;25.494;2023-07-29T10:18:30;96215.25;;;33.09;32.72
33185;BME280;19550;42.872;25.494;2023-07-29T10:20:58;96215.25;;;33.18;32.40
33185;BME280;19550;42.872;25.494;2023-07-29T10:23:27;96219.91;;;33.16;32.82
33185;BME280;19550;42.872;25.494;2023-07-29T10:25:59;96213.41;;;33.24;31.88
33185;BME280;19550;42.872;25.494;2023-07-29T10:28:29;96217.22;;;33.21;32.51
33185;BME280;19550;42.872;25.494;2023-07-29T10:30:57;96214.28;;;33.12;32.36
33185;BME280;19550;42.872;25.494;2023-07-29T10:33:25;96209.09;;;33.29;31.85
33185;BME280;19550;42.872;25.494;2023-07-29T10:35:53;96203.56;;;33.52;32.51
33185;BME280;19550;42.872;25.494;2023-07-29T10:38:22;96202.59;;;33.56;32.30
33185;BME280;19550;42.872;25.494;2023-07-29T10:40:51;96200.72;;;33.80;32.37
33185;BME280;19550;42.872;25.494;2023-07-29T10:43:24;96204.81;;;33.51;32.78
33185;BME280;19550;42.872;25.494;2023-07-29T10:45:51;96198.19;;;33.14;33.35
33185;BME280;19550;42.872;25.494;2023-07-29T10:48:40;96196.25;;;33.11;33.34
33185;BME280;19550;42.872;25.494;2023-07-29T10:54:01;96194.66;;;33.10;32.97
33185;BME280;19550;42.872;25.494;2023-07-29T10:56:30;96183.09;;;33.41;33.57
33185;BME280;19550;42.872;25.494;2023-07-29T10:58:59;96184.88;;;32.99;34.24
33185;BME280;19550;42.872;25.494;2023-07-29T11:01:29;96185.84;;;32.96;33.92
33185;BME280;19550;42.872;25.494;2023-07-29T11:04:26;96184.13;;;33.07;34.07
33185;BME280;19550;42.872;25.494;2023-07-29T11:07:19;96182.00;;;33.48;33.35
33185;BME280;19550;42.872;25.494;2023-07-29T11:09:59;96183.09;;;33.23;32.95
33185;BME280;19550;42.872;25.494;2023-07-29T11:12:37;96181.03;;;33.60;32.09
33185;BME280;19550;42.872;25.494;2023-07-29T11:15:12;96172.75;;;34.08;32.28
33185;BME280;19550;42.872;25.494;2023-07-29T11:17:40;96174.00;;;33.98;31.37
33185;BME280;19550;42.872;25.494;2023-07-29T11:20:09;96173.50;;;34.17;32.31
33185;BME280;19550;42.872;25.494;2023-07-29T11:22:36;96180.22;;;34.33;31.51
33185;BME280;19550;42.872;25.494;2023-07-29T11:25:04;96165.28;;;34.61;30.58
33185;BME280;19550;42.872;25.494;2023-07-29T11:27:31;96168.19;;;34.52;30.63
33185;BME280;19550;42.872;25.494;2023-07-29T11:29:59;96159.75;;;34.40;31.92
33185;BME280;19550;42.872;25.494;2023-07-29T11:32:27;96168.19;;;34.52;30.83
33185;BME280;19550;42.872;25.494;2023-07-29T11:34:54;96166.09;;;34.53;31.24
33185;BME280;19550;42.872;25.494;2023-07-29T11:37:23;96159.34;;;34.74;30.75
33185;BME280;19550;42.872;25.494;2023-07-29T11:39:49;96163.34;;;34.77;31.43
33185;BME280;19550;42.872;25.494;2023-07-29T11:42:16;96171.28;;;35.15;30.11
33185;BME280;19550;42.872;25.494;2023-07-29T11:44:43;96170.84;;;35.07;29.34
33185;BME280;19550;42.872;25.494;2023-07-29T11:47:11;96166.38;;;34.73;29.91
33185;BME280;19550;42.872;25.494;2023-07-29T11:49:39;96160.22;;;34.89;30.82
33185;BME280;19550;42.872;25.494;2023-07-29T11:52:09;96163.94;;;35.14;29.68
33185;BME280;19550;42.872;25.494;2023-07-29T11:54:38;96154.59;;;35.28;30.61
33185;BME280;19550;42.872;25.494;2023-07-29T11:57:06;96156.78;;;35.57;30.01
33185;BME280;19550;42.872;25.494;2023-07-29T11:59:33;96160.63;;;35.77;29.00
33185;BME280;19550;42.872;25.494;2023-07-29T12:02:01;96161.16;;;35.91;29.42
33185;BME280;19550;42.872;25.494;2023-07-29T12:04:28;96160.25;;;35.84;28.72
33185;BME280;19550;42.872;25.494;2023-07-29T12:06:56;96154.72;;;35.96;29.83
33185;BME280;19550;42.872;25.494;2023-07-29T12:09:23;96164.28;;;36.02;29.46
33185;BME280;19550;42.872;25.494;2023-07-29T12:11:53;96153.63;;;36.08;30.12
33185;BME280;19550;42.872;25.494;2023-07-29T12:14:20;96150.44;;;36.06;29.41
33185;BME280;19550;42.872;25.494;2023-07-29T12:16:48;96151.56;;;36.08;29.16
33185;BME280;19550;42.872;25.494;2023-07-29T12:19:17;96157.13;;;36.12;28.99
33185;BME280;19550;42.872;25.494;2023-07-29T12:21:44;96153.16;;;36.09;29.18
33185;BME280;19550;42.872;25.494;2023-07-29T12:24:12;96149.09;;;36.45;28.75
33185;BME280;19550;42.872;25.494;2023-07-29T12:26:39;96151.91;;;36.69;28.76
33185;BME280;19550;42.872;25.494;2023-07-29T12:29:16;96145.91;;;36.73;28.58
33185;BME280;19550;42.872;25.494;2023-07-29T12:31:45;96139.84;;;36.27;28.30
33185;BME280;19550;42.872;25.494;2023-07-29T12:34:17;96153.56;;;36.46;28.66
33185;BME280;19550;42.872;25.494;2023-07-29T12:36:46;96143.00;;;36.14;29.05
33185;BME280;19550;42.872;25.494;2023-07-29T12:39:18;96145.19;;;35.42;29.31
33185;BME280;19550;42.872;25.494;2023-07-29T12:41:45;96144.72;;;35.43;30.11
33185;BME280;19550;42.872;25.494;2023-07-29T12:44:12;96156.00;;;35.95;29.06
33185;BME280;19550;42.872;25.494;2023-07-29T12:46:40;96141.34;;;36.22;29.66
33185;BME280;19550;42.872;25.494;2023-07-29T12:49:07;96141.94;;;36.41;28.18
33185;BME280;19550;42.872;25.494;2023-07-29T12:51:33;96147.19;;;36.57;28.40